createdAt,value
2022-11-16T00:02:31.607Z,15.70
2022-11-16T00:05:27.959Z,14.10
2022-11-16T00:08:13.617Z,15.17
2022-11-16T00:11:25.195Z,14.50
2022-11-16T00:14:10.754Z,13.20
2022-11-16T00:16:56.994Z,14.00
2022-11-16T00:19:42.172Z,14.37
2022-11-16T00:22:30.292Z,14.13
2022-11-16T00:25:15.726Z,14.90
2022-11-16T00:28:00.979Z,14.20
2022-11-16T00:30:46.887Z,14.13
2022-11-16T00:33:32.184Z,13.40
2022-11-16T00:36:17.782Z,14.90
2022-11-16T00:39:05.794Z,12.60
2022-11-16T00:41:51.411Z,14.50
2022-11-16T00:44:39.122Z,13.87
2022-11-16T00:47:27.315Z,14.93
2022-11-16T00:50:20.107Z,13.90
2022-11-16T00:53:08.289Z,15.00
2022-11-16T00:55:53.414Z,13.43
2022-11-16T00:58:38.923Z,13.70
2022-11-16T01:01:24.695Z,12.00
2022-11-16T01:04:10.050Z,13.70
2022-11-16T01:06:55.636Z,13.83
2022-11-16T01:09:40.931Z,13.20
2022-11-16T01:12:26.388Z,13.17
2022-11-16T01:15:12.279Z,14.37
2022-11-16T01:17:57.599Z,12.80
2022-11-16T01:20:43.730Z,12.97
2022-11-16T01:23:28.834Z,12.80
2022-11-16T01:26:17.047Z,11.70
2022-11-16T01:29:02.992Z,13.80
2022-11-16T01:31:48.230Z,14.23
2022-11-16T01:34:35.874Z,13.80
2022-11-16T01:37:21.368Z,12.13
2022-11-16T01:40:08.004Z,12.20
2022-11-16T01:42:53.346Z,13.33
2022-11-16T01:45:42.294Z,12.83
2022-11-16T01:48:30.011Z,12.87
2022-11-16T01:51:18.464Z,13.70
2022-11-16T01:54:10.722Z,13.23
2022-11-16T01:56:57.779Z,14.00
2022-11-16T01:59:46.156Z,12.67
2022-11-16T02:02:31.887Z,14.03
2022-11-16T02:05:30.082Z,13.10
2022-11-16T02:08:53.126Z,12.80
2022-11-16T02:11:38.593Z,13.00
2022-11-16T02:14:56.675Z,13.80
2022-11-16T02:17:57.290Z,13.90
2022-11-16T02:20:58.303Z,13.97
2022-11-16T02:23:44.265Z,13.23
2022-11-16T02:27:06.944Z,13.67
2022-11-16T02:29:56.139Z,12.83
2022-11-16T02:32:52.413Z,12.40
2022-11-16T02:35:46.804Z,13.57
2022-11-16T02:38:36.489Z,13.10
2022-11-16T02:41:25.571Z,13.90
2022-11-16T02:44:28.224Z,13.60
2022-11-16T02:47:19.533Z,13.30
2022-11-16T02:50:10.615Z,10.60
2022-11-16T02:52:56.932Z,13.03
2022-11-16T02:55:43.051Z,13.20
2022-11-16T02:58:33.524Z,13.70
2022-11-16T03:01:34.309Z,13.50
2022-11-16T03:04:42.745Z,15.50
2022-11-16T03:07:35.718Z,14.93
2022-11-16T03:10:40.846Z,15.03
2022-11-16T03:13:33.391Z,13.63
2022-11-16T03:16:45.816Z,14.30
2022-11-16T03:19:43.413Z,13.83
2022-11-16T03:22:44.106Z,13.40
2022-11-16T03:25:38.333Z,13.57
2022-11-16T03:28:36.723Z,12.60
2022-11-16T03:31:31.210Z,13.83
2022-11-16T03:34:20.578Z,14.33
2022-11-16T03:37:09.673Z,13.70
2022-11-16T03:39:59.315Z,15.37
2022-11-16T03:42:49.534Z,14.83
2022-11-16T03:45:37.358Z,14.80
2022-11-16T03:48:23.249Z,16.13
2022-11-16T03:51:10.560Z,16.63
2022-11-16T03:53:57.968Z,15.13
2022-11-16T03:56:45.502Z,16.77
2022-11-16T03:59:30.929Z,14.87
2022-11-16T04:02:16.488Z,17.90
2022-11-16T04:05:20.508Z,18.17
2022-11-16T04:08:24.939Z,15.67
2022-11-16T04:11:37.814Z,17.90
2022-11-16T04:14:43.742Z,17.60
2022-11-16T04:17:47.951Z,19.20
2022-11-16T04:20:51.756Z,18.13
2022-11-16T04:23:55.986Z,17.13
2022-11-16T04:27:06.770Z,16.13
2022-11-16T04:29:53.249Z,15.10
2022-11-16T04:32:59.626Z,15.93
2022-11-16T04:36:03.466Z,16.47
2022-11-16T04:38:51.083Z,16.73
2022-11-16T04:41:56.083Z,15.20
2022-11-16T04:45:00.332Z,15.97
2022-11-16T04:47:49.572Z,16.80
2022-11-16T04:50:35.836Z,14.73
2022-11-16T04:53:22.622Z,17.27
2022-11-16T04:56:12.439Z,15.93
2022-11-16T04:59:00.129Z,17.13
2022-11-16T05:02:05.126Z,17.00
2022-11-16T05:04:52.784Z,16.50
2022-11-16T05:07:38.249Z,16.50
2022-11-16T05:10:23.419Z,16.23
2022-11-16T05:13:09.476Z,17.80
2022-11-16T05:15:54.985Z,18.43
2022-11-16T05:18:40.433Z,16.83
2022-11-16T05:21:26.421Z,17.93
2022-11-16T05:24:30.361Z,18.00
2022-11-16T05:27:17.786Z,17.50
2022-11-16T05:30:05.675Z,20.20
2022-11-16T05:32:51.209Z,19.37
2022-11-16T05:35:39.296Z,16.67
2022-11-16T05:38:24.805Z,17.87
2022-11-16T05:41:10.412Z,18.70
2022-11-16T05:43:56.108Z,18.00
2022-11-16T05:46:42.083Z,19.33
2022-11-16T05:49:27.575Z,18.73
2022-11-16T05:52:12.879Z,18.83
2022-11-16T05:54:58.383Z,17.97
2022-11-16T05:57:44.029Z,19.87
2022-11-16T06:00:29.587Z,19.50
2022-11-16T06:03:17.170Z,19.47
2022-11-16T06:06:04.031Z,17.83
2022-11-16T06:08:51.768Z,19.33
2022-11-16T06:11:38.202Z,18.40
2022-11-16T06:14:23.810Z,19.30
2022-11-16T06:17:14.632Z,20.20
2022-11-16T06:20:00.191Z,18.90
2022-11-16T06:22:48.778Z,18.47
2022-11-16T06:25:34.106Z,18.93
2022-11-16T06:28:19.369Z,17.53
2022-11-16T06:31:05.005Z,19.73
2022-11-16T06:33:50.139Z,19.67
2022-11-16T06:36:36.155Z,19.17
2022-11-16T06:39:21.642Z,19.70
2022-11-16T06:42:09.871Z,19.23
2022-11-16T06:44:55.150Z,16.60
2022-11-16T06:47:40.690Z,20.40
2022-11-16T06:50:26.519Z,19.67
2022-11-16T06:53:11.747Z,17.23
2022-11-16T06:56:05.158Z,17.57
2022-11-16T06:58:53.289Z,19.37
2022-11-16T07:01:42.951Z,19.17
2022-11-16T07:04:28.411Z,19.40
2022-11-16T07:07:15.287Z,18.33
2022-11-16T07:10:00.827Z,17.50
2022-11-16T07:12:46.209Z,18.87
2022-11-16T07:15:32.128Z,20.13
2022-11-16T07:18:19.828Z,17.10
2022-11-16T07:21:10.604Z,18.60
2022-11-16T07:23:57.100Z,18.40
2022-11-16T07:26:42.168Z,19.50
2022-11-16T07:29:28.593Z,19.00
2022-11-16T07:32:14.307Z,18.07
2022-11-16T07:35:02.353Z,20.20
2022-11-16T07:37:47.829Z,18.60
2022-11-16T07:40:33.466Z,18.70
2022-11-16T07:43:19.085Z,20.53
2022-11-16T07:49:19.444Z,17.53
2022-11-16T07:52:05.108Z,18.50
2022-11-16T07:54:50.288Z,18.47
2022-11-16T07:57:35.803Z,18.60
2022-11-16T08:00:21.205Z,19.30
2022-11-16T08:03:06.643Z,18.07
2022-11-16T08:06:02.612Z,18.97
2022-11-16T08:08:50.390Z,17.90
2022-11-16T08:11:38.361Z,18.03
2022-11-16T08:14:23.620Z,18.77
2022-11-16T08:17:08.815Z,18.47
2022-11-16T08:19:54.605Z,17.20
2022-11-16T08:22:40.166Z,18.90
2022-11-16T08:25:28.588Z,17.43
2022-11-16T08:28:17.222Z,16.90
2022-11-16T08:31:14.653Z,15.40
2022-11-16T08:34:01.053Z,15.10
2022-11-16T08:36:49.010Z,16.50
2022-11-16T08:39:37.335Z,15.30
2022-11-16T08:42:23.016Z,16.73
2022-11-16T08:45:09.543Z,14.80
2022-11-16T08:48:03.562Z,15.00
2022-11-16T08:51:15.794Z,13.60
2022-11-16T08:53:59.296Z,16.10
2022-11-16T08:56:44.742Z,16.87
2022-11-16T08:59:33.802Z,14.03
2022-11-16T09:02:25.311Z,13.63
2022-11-16T09:05:12.085Z,14.20
2022-11-16T09:07:57.518Z,13.03
2022-11-16T09:10:43.388Z,12.83
2022-11-16T09:13:28.832Z,13.03
2022-11-16T09:16:17.841Z,12.77
2022-11-16T09:19:05.359Z,12.53
2022-11-16T09:21:53.248Z,13.07
2022-11-16T09:24:38.542Z,11.07
2022-11-16T09:27:26.981Z,11.00
2022-11-16T09:30:12.829Z,9.97
2022-11-16T09:32:59.061Z,11.10
2022-11-16T09:35:44.614Z,9.17
2022-11-16T09:42:18.429Z,10.00
2022-11-16T09:45:20.731Z,8.40
2022-11-16T09:48:12.487Z,8.00
2022-11-16T09:51:01.885Z,9.07
2022-11-16T09:54:06.029Z,8.60
2022-11-16T09:57:00.729Z,8.40
2022-11-16T09:59:55.086Z,7.53
2022-11-16T10:02:50.376Z,9.40
2022-11-16T10:05:51.812Z,9.37
2022-11-16T10:08:49.020Z,8.90
2022-11-16T10:11:46.941Z,8.97
2022-11-16T10:14:49.654Z,8.70
2022-11-16T10:17:56.503Z,9.70
2022-11-16T10:21:27.132Z,9.57
2022-11-16T10:24:55.825Z,9.10
2022-11-16T10:27:52.537Z,10.00
2022-11-16T10:31:06.390Z,9.77
2022-11-16T10:33:57.176Z,9.00
2022-11-16T10:36:43.180Z,9.47
2022-11-16T10:39:28.988Z,9.13
2022-11-16T10:42:22.986Z,9.50
2022-11-16T10:45:30.238Z,9.63
2022-11-16T10:48:31.471Z,11.37
2022-11-16T10:51:17.657Z,9.87
2022-11-16T10:54:11.330Z,11.27
2022-11-16T10:57:05.805Z,10.80
2022-11-16T10:59:55.590Z,10.80
2022-11-16T11:02:49.433Z,10.43
2022-11-16T11:05:46.218Z,10.43
2022-11-16T11:08:31.855Z,10.27
2022-11-16T11:11:41.900Z,10.60
2022-11-16T11:14:27.505Z,10.47
2022-11-16T11:17:17.733Z,11.60
2022-11-16T11:20:05.577Z,12.07
2022-11-16T11:23:02.462Z,10.90
2022-11-16T11:25:59.480Z,10.90
2022-11-16T11:28:50.866Z,12.47
2022-11-16T11:31:46.215Z,12.80
2022-11-16T11:34:40.398Z,12.30
2022-11-16T11:37:31.848Z,11.70
2022-11-16T11:40:25.127Z,11.90
2022-11-16T11:43:23.285Z,12.97
2022-11-16T11:46:56.074Z,11.00
2022-11-16T11:49:42.031Z,12.50
2022-11-16T11:52:47.626Z,12.30
2022-11-16T11:55:33.572Z,12.00
2022-11-16T11:58:19.794Z,12.30
2022-11-16T12:01:33.714Z,12.00
2022-11-16T12:04:24.689Z,12.23
2022-11-16T12:07:12.585Z,11.77
2022-11-16T12:10:25.984Z,12.30
2022-11-16T12:13:56.214Z,11.33
2022-11-16T12:16:50.622Z,12.83
2022-11-16T12:20:00.654Z,12.47
2022-11-16T12:23:04.721Z,11.57
2022-11-16T12:26:21.719Z,12.30
2022-11-16T12:29:29.573Z,11.23
2022-11-16T12:32:51.943Z,10.90
2022-11-16T12:35:58.615Z,11.53
2022-11-16T12:39:09.869Z,10.83
2022-11-16T12:42:21.570Z,11.30
2022-11-16T12:45:20.463Z,12.00
2022-11-16T12:48:27.398Z,12.97
2022-11-16T12:51:15.526Z,11.13
2022-11-16T12:54:13.446Z,10.87
2022-11-16T12:57:05.375Z,11.70
2022-11-16T13:00:11.336Z,11.23
2022-11-16T13:03:35.840Z,11.00
2022-11-16T13:06:29.252Z,12.90
2022-11-16T13:09:20.017Z,11.13
2022-11-16T13:12:14.258Z,10.50
2022-11-16T13:15:03.074Z,10.57
2022-11-16T13:17:59.109Z,10.60
2022-11-16T13:21:13.762Z,10.80
2022-11-16T13:24:20.935Z,10.07
2022-11-16T13:27:23.209Z,10.50
2022-11-16T13:30:26.211Z,10.67
2022-11-16T13:33:30.397Z,8.80
2022-11-16T13:36:39.287Z,10.03
2022-11-16T13:39:59.212Z,8.30
2022-11-16T13:42:57.726Z,8.90
2022-11-16T13:46:00.815Z,9.50
2022-11-16T13:48:47.541Z,9.20
2022-11-16T13:51:32.843Z,8.47
2022-11-16T13:54:45.312Z,8.77
2022-11-16T13:57:38.200Z,7.47
2022-11-16T14:00:30.971Z,8.70
2022-11-16T14:03:16.165Z,9.53
2022-11-16T14:06:04.233Z,8.87
2022-11-16T14:08:53.505Z,8.63
2022-11-16T14:11:42.468Z,9.10
2022-11-16T14:15:03.749Z,8.60
2022-11-16T14:17:57.191Z,8.47
2022-11-16T14:21:21.854Z,8.40
2022-11-16T14:24:35.435Z,8.57
2022-11-16T14:27:40.885Z,7.53
2022-11-16T14:30:46.949Z,7.50
2022-11-16T14:33:36.772Z,7.93
2022-11-16T14:36:44.324Z,7.93
2022-11-16T14:39:41.141Z,8.00
2022-11-16T14:42:38.169Z,8.60
2022-11-16T14:45:37.100Z,7.30
2022-11-16T14:48:28.601Z,7.93
2022-11-16T14:51:35.442Z,8.67
2022-11-16T14:54:41.522Z,8.60
2022-11-16T14:57:27.067Z,8.17
2022-11-16T15:00:22.327Z,9.07
2022-11-16T15:03:14.938Z,7.03
2022-11-16T15:06:01.895Z,7.93
2022-11-16T15:09:02.011Z,7.00
2022-11-16T15:12:08.061Z,7.97
2022-11-16T15:14:57.463Z,7.23
2022-11-16T15:18:06.003Z,6.57
2022-11-16T15:20:52.562Z,7.13
2022-11-16T15:24:02.036Z,6.43
2022-11-16T15:26:55.952Z,7.33
2022-11-16T15:29:41.320Z,6.57
2022-11-16T15:32:29.084Z,6.30
2022-11-16T15:35:22.151Z,7.10
2022-11-16T15:38:27.365Z,6.50
2022-11-16T15:41:17.823Z,6.23
2022-11-16T15:44:15.179Z,5.87
2022-11-16T15:47:03.860Z,6.20
2022-11-16T15:49:52.868Z,5.80
2022-11-16T15:52:55.543Z,5.40
2022-11-16T15:55:42.366Z,5.63
2022-11-16T15:58:30.510Z,5.17
2022-11-16T16:01:17.973Z,5.80
2022-11-16T16:04:07.601Z,5.13
2022-11-16T16:06:58.649Z,5.57
2022-11-16T16:09:44.211Z,5.50
2022-11-16T16:12:29.647Z,6.03
2022-11-16T16:15:23.894Z,5.63
2022-11-16T16:18:37.091Z,4.90
2022-11-16T16:21:23.035Z,5.57
2022-11-16T16:24:11.643Z,5.60
2022-11-16T16:26:57.648Z,6.47
2022-11-16T16:29:45.243Z,5.63
2022-11-16T16:32:33.679Z,6.50
2022-11-16T16:35:21.810Z,6.10
2022-11-16T16:38:13.444Z,6.67
2022-11-16T16:41:05.913Z,6.07
2022-11-16T16:43:51.663Z,6.23
2022-11-16T16:46:37.368Z,5.37
2022-11-16T16:49:22.906Z,6.00
2022-11-16T16:52:11.295Z,5.20
2022-11-16T16:54:56.430Z,5.50
2022-11-16T16:57:43.749Z,5.90
2022-11-16T17:00:29.130Z,5.97
2022-11-16T17:03:17.190Z,5.43
2022-11-16T17:06:02.965Z,5.77
2022-11-16T17:08:48.549Z,6.10
2022-11-16T17:11:34.057Z,5.43
2022-11-16T17:14:24.517Z,6.47
2022-11-16T17:17:10.271Z,7.33
2022-11-16T17:19:56.303Z,6.40
2022-11-16T17:22:42.010Z,6.80
2022-11-16T17:25:27.715Z,5.80
2022-11-16T17:28:13.083Z,6.70
2022-11-16T17:31:10.744Z,5.60
2022-11-16T17:33:57.731Z,6.10
2022-11-16T17:36:46.284Z,6.23
2022-11-16T17:39:31.851Z,6.50
2022-11-16T17:42:19.718Z,5.40
2022-11-16T17:45:06.157Z,6.00
2022-11-16T17:47:53.851Z,4.73
2022-11-16T17:50:39.347Z,5.20
2022-11-16T17:53:31.256Z,5.47
2022-11-16T17:56:20.801Z,4.70
2022-11-16T17:59:08.770Z,5.23
2022-11-16T18:01:54.260Z,4.90
2022-11-16T18:04:39.741Z,5.20
2022-11-16T18:07:25.258Z,4.73
2022-11-16T18:10:18.911Z,4.30
2022-11-16T18:13:05.855Z,5.27
2022-11-16T18:16:03.453Z,4.50
2022-11-16T18:18:56.512Z,4.10
2022-11-16T18:21:42.113Z,3.93
2022-11-16T18:24:30.863Z,4.30
2022-11-16T18:27:16.043Z,4.10
2022-11-16T18:30:02.112Z,4.50
2022-11-16T18:32:48.495Z,4.60
2022-11-16T18:35:36.793Z,4.00
2022-11-16T18:38:22.121Z,4.00
2022-11-16T18:41:14.382Z,4.53
2022-11-16T18:44:03.211Z,4.37
2022-11-16T18:46:48.790Z,3.73
2022-11-16T18:49:34.407Z,4.00
2022-11-16T18:52:19.731Z,3.73
2022-11-16T18:55:09.209Z,4.03
2022-11-16T18:57:54.514Z,4.80
2022-11-16T19:00:42.274Z,3.90
2022-11-16T19:03:27.544Z,3.90
2022-11-16T19:06:14.968Z,4.17
2022-11-16T19:09:04.397Z,4.73
2022-11-16T19:11:52.629Z,3.77
2022-11-16T19:14:42.823Z,3.83
2022-11-16T19:17:28.069Z,3.60
2022-11-16T19:20:16.092Z,3.50
2022-11-16T19:23:02.081Z,3.70
2022-11-16T19:25:47.971Z,3.27
2022-11-16T19:28:40.037Z,3.80
2022-11-16T19:31:28.624Z,3.53
2022-11-16T19:34:17.033Z,3.90
2022-11-16T19:37:02.400Z,3.90
2022-11-16T19:39:50.469Z,4.00
2022-11-16T19:42:35.793Z,3.43
2022-11-16T19:45:21.256Z,3.87
2022-11-16T19:48:11.557Z,4.37
2022-11-16T19:51:03.030Z,3.30
2022-11-16T19:53:48.546Z,3.87
2022-11-16T19:56:34.241Z,3.80
2022-11-16T19:59:19.708Z,4.00
2022-11-16T20:02:09.502Z,3.23
2022-11-16T20:04:55.284Z,3.40
2022-11-16T20:07:40.690Z,3.97
2022-11-16T20:10:31.730Z,3.53
2022-11-16T20:13:18.238Z,3.53
2022-11-16T20:16:04.256Z,3.97
2022-11-16T20:18:51.365Z,3.20
2022-11-16T20:21:42.749Z,3.33
2022-11-16T20:24:28.153Z,3.50
2022-11-16T20:27:14.253Z,3.60
2022-11-16T20:30:07.952Z,3.60
2022-11-16T20:32:54.969Z,4.10
2022-11-16T20:35:43.885Z,4.27
2022-11-16T20:38:29.295Z,3.60
2022-11-16T20:41:17.352Z,4.37
2022-11-16T20:44:03.462Z,4.10
2022-11-16T20:46:49.177Z,4.03
2022-11-16T20:49:35.381Z,4.83
2022-11-16T20:52:21.512Z,4.07
2022-11-16T20:55:07.757Z,4.47
2022-11-16T20:57:53.502Z,5.00
2022-11-16T21:00:39.041Z,4.13
2022-11-16T21:03:24.876Z,4.70
2022-11-16T21:06:11.781Z,4.27
2022-11-16T21:08:57.843Z,3.40
2022-11-16T21:12:06.705Z,4.10
2022-11-16T21:14:52.037Z,4.77
2022-11-16T21:17:37.520Z,4.10
2022-11-16T21:20:27.766Z,4.17
2022-11-16T21:23:14.981Z,4.23
2022-11-16T21:26:08.268Z,4.30
2022-11-16T21:28:54.286Z,3.67
2022-11-16T21:31:39.938Z,4.20
2022-11-16T21:34:32.702Z,4.13
2022-11-16T21:37:21.583Z,4.30
2022-11-16T21:40:08.552Z,4.33
2022-11-16T21:42:54.657Z,5.20
2022-11-16T21:45:40.438Z,3.87
2022-11-16T21:48:25.850Z,4.13
2022-11-16T21:51:16.100Z,4.27
2022-11-16T21:54:02.675Z,3.20
2022-11-16T21:56:48.021Z,4.30
2022-11-16T21:59:33.590Z,4.33
2022-11-16T22:02:19.137Z,4.37
2022-11-16T22:05:26.040Z,4.07
2022-11-16T22:08:13.645Z,3.80
2022-11-16T22:11:03.599Z,3.90
2022-11-16T22:13:52.196Z,3.90
2022-11-16T22:16:37.706Z,4.07
2022-11-16T22:19:23.012Z,3.70
2022-11-16T22:22:08.517Z,3.97
2022-11-16T22:24:53.980Z,3.90
2022-11-16T22:27:58.704Z,3.50
2022-11-16T22:30:51.765Z,4.03
2022-11-16T22:33:40.384Z,4.03
2022-11-16T22:36:26.071Z,4.77
2022-11-16T22:39:12.084Z,4.60
2022-11-16T22:41:57.626Z,3.50
2022-11-16T22:44:42.777Z,4.30
2022-11-16T22:47:28.377Z,3.70
2022-11-16T22:50:14.030Z,3.93
2022-11-16T22:52:59.287Z,4.67
2022-11-16T22:55:44.702Z,4.47
2022-11-16T22:58:32.808Z,4.17
2022-11-16T23:01:22.118Z,4.00
2022-11-16T23:04:10.712Z,4.37
2022-11-16T23:06:56.314Z,4.10
2022-11-16T23:09:42.053Z,4.07
2022-11-16T23:12:45.938Z,4.80
2022-11-16T23:15:49.229Z,4.30
2022-11-16T23:18:34.420Z,4.23
2022-11-16T23:21:38.034Z,4.43
2022-11-16T23:24:42.389Z,4.83
2022-11-16T23:27:36.915Z,4.53
2022-11-16T23:30:23.113Z,4.90
2022-11-16T23:33:08.858Z,5.10
2022-11-16T23:35:54.356Z,5.30
2022-11-16T23:38:40.693Z,4.30
2022-11-16T23:41:44.800Z,4.77
2022-11-16T23:44:32.583Z,4.40
2022-11-16T23:47:17.887Z,4.67
2022-11-16T23:50:03.662Z,4.13
2022-11-16T23:52:51.217Z,4.57
2022-11-16T23:55:40.872Z,4.87
2022-11-16T23:58:26.114Z,4.30
